»·PEaware :: NKS421 KSNA-KLAS

NKS421 :: KSNA-KLAS

FLIGHT INFORMATION

Flight Status: Arrived
Operator:
Spirit Airlines
More flights by this operator :: More flights under this callsign
Pilot: Anonymous 12254 (12254)
Aircraft: AIRBUS A320
(A320)
More flights by this aircraft type
Origin: KSNA John Wayne-Orange Co
United States
Destination: KLAS McCarran Intl
United States
More flights between these airports :: More routes between these airports
Route: FINZZ2 MISEN KEPEC6
File this flight plan on PilotEdge
Remarks:
Altitude:
(Current/Filed)
29,000ft
Speed:
(Current/Filed)
450kts
Departed: 25-Jun-19 05:24 PM
Arrived: 25-Jun-19 06:21 PM
Distance/Time
Traveled:
196nm/0:57
Distance/Time
To Go:
Arrived

Flight Plot

Page will automatically refresh every two minutes.

Flight plan parsing failed; only flown route is shown


Map Options




Map Legend


Flown Route
Filed Route
Departure Airport
Arrival Airport
Navaid (VOR, NDB)
Fix

Horizontal Profiles

Position Reports

Time Latitude Longitude Heading Altitude Ground
Speed
25-Jun-19 16:56 33.675702 -117.864598 118 65ft 0kts
25-Jun-19 16:57 33.675702 -117.864598 118 65ft 0kts
25-Jun-19 16:59 33.675702 -117.864598 118 65ft 0kts
25-Jun-19 16:59 33.675702 -117.864598 118 65ft 0kts
25-Jun-19 17:00 33.675702 -117.864598 118 65ft 0kts
25-Jun-19 17:01 33.675702 -117.864598 118 65ft 0kts
25-Jun-19 17:02 33.675702 -117.864598 118 65ft 0kts
25-Jun-19 17:03 33.675702 -117.864598 118 65ft 0kts
25-Jun-19 17:04 33.675702 -117.864598 118 65ft 0kts
25-Jun-19 17:05 33.675702 -117.864598 118 65ft 0kts
25-Jun-19 17:06 33.675702 -117.864598 118 65ft 0kts
25-Jun-19 17:07 33.675702 -117.864598 118 65ft 0kts
25-Jun-19 17:08 33.675702 -117.864598 118 65ft 0kts
25-Jun-19 17:09 33.675702 -117.864598 118 65ft 0kts
25-Jun-19 17:10 33.675702 -117.864598 118 65ft 0kts
25-Jun-19 17:11 33.675702 -117.864598 118 65ft 0kts
25-Jun-19 17:12 33.675702 -117.864598 118 65ft 0kts
25-Jun-19 17:13 33.675702 -117.864598 118 65ft 0kts
25-Jun-19 17:14 33.675702 -117.864598 118 65ft 0kts
25-Jun-19 17:15 33.675702 -117.864598 118 65ft 0kts
25-Jun-19 17:16 33.675927 -117.865147 87 65ft 1kts
25-Jun-19 17:17 33.676010 -117.865262 25 65ft 3kts
25-Jun-19 17:18 33.676996 -117.864680 27 65ft 9kts
25-Jun-19 17:19 33.680070 -117.862755 17 65ft 10kts
25-Jun-19 17:20 33.680618 -117.863024 298 65ft 0kts
25-Jun-19 17:21 33.681114 -117.864151 296 65ft 0kts
25-Jun-19 17:22 33.681114 -117.864151 296 65ft 0kts
25-Jun-19 17:23 33.679983 -117.866089 207 65ft 59kts
25-Jun-19 17:24 33.638675 -117.890479 188 1283ft 227kts
25-Jun-19 17:25 33.566797 -117.905882 215 3676ft 293kts
25-Jun-19 17:26 33.510009 -117.968878 225 6148ft 269kts
25-Jun-19 17:27 33.517796 -118.049138 312 8603ft 283kts
25-Jun-19 17:28 33.575057 -118.116269 337 11078ft 298kts
25-Jun-19 17:29 33.653137 -118.092227 24 13089ft 309kts
25-Jun-19 17:30 33.733791 -118.045474 24 15006ft 346kts
25-Jun-19 17:31 33.821643 -117.994263 24 16969ft 370kts
25-Jun-19 17:32 33.914873 -117.936887 34 18952ft 388kts
25-Jun-19 17:33 34.001759 -117.857489 35 20920ft 399kts
25-Jun-19 17:34 34.087111 -117.770189 47 22869ft 408kts
25-Jun-19 17:35 34.162249 -117.668432 46 24663ft 414kts
25-Jun-19 17:36 34.239683 -117.565725 46 26239ft 423kts
25-Jun-19 17:37 34.319929 -117.459262 46 27681ft 433kts
25-Jun-19 17:38 34.401862 -117.350241 46 27944ft 438kts
25-Jun-19 17:39 34.482420 -117.242806 47 28369ft 436kts
25-Jun-19 17:40 34.567409 -117.128932 47 27685ft 458kts
25-Jun-19 17:41 34.651964 -117.015442 47 26926ft 447kts
25-Jun-19 17:42 34.734246 -116.904570 47 26099ft 434kts
25-Jun-19 17:43 34.814432 -116.796089 47 25283ft 428kts
25-Jun-19 17:44 34.893550 -116.688817 47 24580ft 423kts
25-Jun-19 17:45 34.972190 -116.581826 48 24107ft 426kts
25-Jun-19 17:46 35.051393 -116.473821 48 24044ft 424kts
25-Jun-19 17:47 35.130775 -116.368291 45 23993ft 421kts
25-Jun-19 17:48 35.210115 -116.268966 46 23356ft 403kts
25-Jun-19 17:49 35.287969 -116.171125 46 22615ft 399kts
25-Jun-19 17:50 35.364918 -116.074175 46 21807ft 393kts
25-Jun-19 17:51 35.440288 -115.978941 46 21003ft 387kts
25-Jun-19 17:52 35.514656 -115.884706 46 20185ft 381kts
25-Jun-19 17:53 35.587546 -115.792080 46 18845ft 372kts
25-Jun-19 17:54 35.659088 -115.700970 46 17151ft 367kts
25-Jun-19 17:55 35.729899 -115.610515 46 15310ft 364kts
25-Jun-19 17:56 35.817580 -115.571548 0 14098ft 338kts
25-Jun-19 17:57 35.910441 -115.566878 0 12692ft 327kts
25-Jun-19 17:58 35.982907 -115.526458 69 12431ft 299kts
25-Jun-19 17:59 36.006703 -115.429471 91 11622ft 290kts
25-Jun-19 18:00 36.007479 -115.332029 93 10513ft 279kts
25-Jun-19 18:01 36.008549 -115.235419 92 9100ft 282kts
25-Jun-19 18:02 36.009590 -115.139114 92 8077ft 269kts
25-Jun-19 18:03 36.013256 -115.052720 70 7466ft 256kts
25-Jun-19 18:04 36.072603 -115.022251 342 6744ft 244kts
25-Jun-19 18:05 36.095945 -115.083674 262 5843ft 189kts
25-Jun-19 18:06 36.065968 -115.123202 212 6611ft 180kts
25-Jun-19 18:07 36.019984 -115.116202 111 7057ft 214kts
25-Jun-19 18:08 36.011258 -115.042815 102 7043ft 214kts
25-Jun-19 18:09 36.018290 -114.974008 35 6061ft 227kts
25-Jun-19 18:10 36.080810 -114.956287 12 6024ft 230kts
25-Jun-19 18:11 36.143856 -114.942705 12 6009ft 229kts
25-Jun-19 18:12 36.207194 -114.929369 12 6005ft 231kts
25-Jun-19 18:13 36.270855 -114.917818 353 6002ft 234kts
25-Jun-19 18:14 36.288419 -114.975289 224 6007ft 201kts
25-Jun-19 18:15 36.250568 -115.026159 222 6004ft 198kts
25-Jun-19 18:16 36.212619 -115.076170 222 6006ft 198kts
25-Jun-19 18:17 36.169463 -115.110809 195 5110ft 198kts
25-Jun-19 18:18 36.124783 -115.138559 202 3305ft 172kts
25-Jun-19 18:19 36.086226 -115.160557 205 2132ft 109kts
25-Jun-19 18:20 36.081575 -115.161844 91 2146ft 0kts
25-Jun-19 18:21 36.081569 -115.161479 89 2145ft 8kts

Navigation Log

Ident Type
Flight plan parsing failed, navigation log unavailable